createdAt,value
2019-03-13T00:02:37.080Z,7.40
2019-03-13T00:05:25.497Z,7.40
2019-03-13T00:08:09.363Z,7.40
2019-03-13T00:10:50.368Z,7.40
2019-03-13T00:13:31.106Z,7.30
2019-03-13T00:19:00.553Z,6.70
2019-03-13T00:24:28.343Z,6.20
2019-03-13T00:29:56.257Z,5.80
2019-03-13T00:33:15.610Z,5.70
2019-03-13T00:35:45.969Z,5.60
2019-03-13T00:49:00.255Z,5.40
2019-03-13T00:51:36.717Z,5.40
2019-03-13T00:57:51.673Z,5.40
2019-03-13T01:00:59.119Z,5.40
2019-03-13T01:04:06.224Z,5.40
2019-03-13T01:10:15.268Z,5.40
2019-03-13T01:16:40.978Z,5.50
2019-03-13T01:22:28.732Z,5.50
2019-03-13T01:24:59.718Z,5.50
2019-03-13T01:31:28.894Z,5.50
2019-03-13T01:34:31.154Z,5.50
2019-03-13T01:43:27.961Z,5.50
2019-03-13T01:45:57.076Z,5.40
2019-03-13T01:48:45.113Z,5.50
2019-03-13T01:51:15.979Z,5.50
2019-03-13T01:53:46.862Z,5.50
2019-03-13T01:56:34.838Z,5.60
2019-03-13T02:02:10.971Z,5.60
2019-03-13T02:22:07.182Z,5.70
2019-03-13T02:24:55.798Z,5.70
2019-03-13T02:27:44.046Z,5.80
2019-03-13T02:33:40.998Z,5.70
2019-03-13T02:36:29.431Z,5.70
2019-03-13T02:39:18.018Z,5.70
2019-03-13T02:42:06.033Z,5.70
2019-03-13T02:44:55.112Z,5.70
2019-03-13T02:47:31.226Z,5.70
2019-03-13T02:50:10.394Z,5.70
2019-03-13T02:52:58.723Z,5.70
2019-03-13T02:56:23.473Z,5.70
2019-03-13T02:59:11.720Z,5.70
2019-03-13T03:04:27.139Z,5.70
2019-03-13T03:19:29.870Z,5.70
2019-03-13T03:22:17.965Z,5.70
2019-03-13T03:24:48.725Z,5.80
2019-03-13T03:27:17.965Z,5.80
2019-03-13T03:29:47.023Z,5.80
2019-03-13T03:35:13.548Z,5.80
2019-03-13T03:38:01.792Z,5.90
2019-03-13T03:40:31.431Z,5.90
2019-03-13T03:43:00.409Z,5.90
2019-03-13T03:45:48.770Z,5.90
2019-03-13T03:48:19.055Z,5.90
2019-03-13T03:51:07.209Z,6.00
2019-03-13T03:53:55.572Z,6.00
2019-03-13T04:00:19.495Z,5.90
2019-03-13T04:03:07.490Z,5.90
2019-03-13T04:05:55.639Z,5.90
2019-03-13T04:08:44.407Z,5.80
2019-03-13T04:11:32.774Z,5.80
2019-03-13T04:14:21.273Z,5.80
2019-03-13T04:20:05.223Z,5.80
2019-03-13T04:22:53.509Z,5.80
2019-03-13T04:25:41.475Z,5.80
2019-03-13T04:28:30.571Z,5.80
2019-03-13T04:30:59.430Z,5.70
2019-03-13T04:33:47.722Z,5.70
2019-03-13T04:36:36.381Z,5.70
2019-03-13T04:39:24.684Z,5.70
2019-03-13T04:42:09.189Z,5.70
2019-03-13T04:47:42.181Z,5.70
2019-03-13T04:50:26.241Z,5.70
2019-03-13T04:53:07.775Z,5.70
2019-03-13T04:55:52.688Z,5.60
2019-03-13T05:01:19.107Z,5.60
2019-03-13T05:06:48.727Z,5.60
2019-03-13T05:09:29.675Z,5.60
2019-03-13T05:12:13.830Z,5.50
2019-03-13T05:17:39.837Z,5.60
2019-03-13T05:20:21.328Z,5.70
2019-03-13T05:23:02.173Z,5.70
2019-03-13T05:25:46.519Z,5.70
2019-03-13T05:31:04.298Z,5.80
2019-03-13T05:33:52.543Z,5.80
2019-03-13T05:36:36.343Z,5.80
2019-03-13T05:42:08.967Z,5.80
2019-03-13T05:47:41.284Z,5.80
2019-03-13T05:53:07.829Z,5.90
2019-03-13T05:55:48.450Z,5.80
2019-03-13T05:58:32.547Z,5.90
2019-03-13T06:01:13.775Z,5.90
2019-03-13T06:03:55.103Z,5.90
2019-03-13T06:06:35.846Z,6.00
2019-03-13T06:09:19.570Z,6.00
2019-03-13T06:12:00.820Z,6.00
2019-03-13T06:14:41.860Z,6.00
2019-03-13T06:17:22.911Z,6.00
2019-03-13T06:22:50.759Z,6.10
2019-03-13T06:25:32.392Z,6.10
2019-03-13T06:31:04.843Z,6.10
2019-03-13T06:43:21.717Z,6.20
2019-03-13T06:46:05.689Z,6.20
2019-03-13T06:58:00.329Z,6.30
2019-03-13T07:18:31.131Z,6.40
2019-03-13T07:21:38.471Z,6.40
2019-03-13T07:24:45.804Z,6.40
2019-03-13T07:27:52.917Z,6.40
2019-03-13T07:35:01.611Z,6.40
2019-03-13T07:48:33.384Z,6.50
2019-03-13T07:51:40.711Z,6.50
2019-03-13T07:54:48.038Z,6.50
2019-03-13T07:57:55.376Z,6.50
2019-03-13T08:00:53.438Z,6.50
2019-03-13T08:04:00.741Z,6.50
2019-03-13T08:07:08.065Z,6.50
2019-03-13T08:12:36.513Z,6.50
2019-03-13T08:18:08.931Z,6.60
2019-03-13T08:23:41.150Z,6.80
2019-03-13T08:26:25.478Z,6.80
2019-03-13T08:35:01.142Z,6.90
2019-03-13T08:38:06.460Z,6.90
2019-03-13T08:43:55.235Z,6.90
2019-03-13T08:46:39.552Z,6.90
2019-03-13T08:49:23.762Z,6.90
2019-03-13T08:52:15.898Z,6.90
2019-03-13T09:00:51.895Z,7.00
2019-03-13T09:03:36.398Z,7.00
2019-03-13T09:09:04.328Z,7.00
2019-03-13T09:14:33.056Z,7.10
2019-03-13T09:17:17.367Z,7.10
2019-03-13T09:22:45.231Z,7.10
2019-03-13T09:25:48.619Z,7.10
2019-03-13T09:28:33.246Z,7.20
2019-03-13T09:34:01.128Z,7.20
2019-03-13T09:39:37.311Z,7.30
2019-03-13T09:42:44.379Z,7.30
2019-03-13T09:45:51.793Z,7.40
2019-03-13T09:48:59.119Z,7.40
2019-03-13T09:52:06.511Z,7.50
2019-03-13T09:55:04.711Z,7.50
2019-03-13T10:04:51.038Z,7.60
2019-03-13T10:07:45.139Z,7.50
2019-03-13T10:10:39.530Z,7.50
2019-03-13T10:17:11.307Z,7.50
2019-03-13T10:23:07.921Z,7.40
2019-03-13T10:26:15.292Z,7.50
2019-03-13T10:29:09.129Z,7.50
2019-03-13T10:32:16.560Z,7.50
2019-03-13T10:35:18.211Z,7.50
2019-03-13T10:44:17.356Z,7.50
2019-03-13T10:47:25.014Z,7.60
2019-03-13T11:18:08.454Z,7.50
2019-03-13T11:21:15.806Z,7.40
2019-03-13T11:45:19.349Z,7.30
2019-03-13T11:48:26.513Z,7.40
2019-03-13T11:51:14.461Z,7.40
2019-03-13T11:54:21.795Z,7.30
2019-03-13T11:57:28.886Z,7.30
2019-03-13T12:00:28.973Z,7.20
2019-03-13T12:03:17.231Z,7.20
2019-03-13T12:06:24.825Z,7.20
2019-03-13T12:09:32.183Z,7.20
2019-03-13T12:12:39.354Z,7.20
2019-03-13T12:15:46.695Z,7.10
2019-03-13T12:19:02.755Z,7.10
2019-03-13T12:24:35.367Z,7.10
2019-03-13T12:30:27.660Z,7.20
2019-03-13T12:36:00.526Z,7.50
2019-03-13T12:38:44.693Z,7.60
2019-03-13T12:41:47.845Z,7.70
2019-03-13T12:44:32.399Z,7.80
2019-03-13T12:50:23.026Z,8.10
2019-03-13T12:53:07.062Z,8.10
2019-03-13T12:58:39.951Z,8.20
2019-03-13T13:07:27.203Z,8.00
2019-03-13T13:10:34.358Z,8.00
2019-03-13T13:16:06.788Z,7.90
2019-03-13T13:21:20.509Z,7.90
2019-03-13T13:31:25.202Z,7.80
2019-03-13T13:37:34.354Z,7.90
2019-03-13T13:40:22.354Z,8.00
2019-03-13T13:43:10.350Z,8.10
2019-03-13T13:46:17.651Z,8.10
2019-03-13T13:49:06.045Z,8.20
2019-03-13T13:51:54.386Z,8.20
2019-03-13T13:54:42.626Z,8.20
2019-03-13T13:57:30.801Z,8.20
2019-03-13T14:00:19.388Z,8.20
2019-03-13T14:03:07.408Z,8.10
2019-03-13T14:05:55.520Z,8.10
2019-03-13T14:08:43.786Z,8.00
2019-03-13T14:14:16.527Z,8.00
2019-03-13T14:16:57.578Z,8.10
2019-03-13T14:19:41.400Z,8.10
2019-03-13T14:29:03.720Z,8.10
2019-03-13T14:41:52.951Z,8.00
2019-03-13T14:47:52.738Z,7.80
2019-03-13T14:50:41.276Z,7.70
2019-03-13T14:53:29.622Z,7.70
2019-03-13T14:56:18.170Z,7.70
2019-03-13T14:59:06.468Z,7.70
2019-03-13T15:02:13.666Z,7.70
2019-03-13T15:05:01.674Z,7.70
2019-03-13T15:07:49.938Z,7.60
2019-03-13T15:10:38.474Z,7.50
2019-03-13T15:13:27.046Z,7.40
2019-03-13T15:15:56.225Z,7.30
2019-03-13T15:18:44.822Z,7.20
2019-03-13T15:21:33.336Z,7.20
2019-03-13T15:24:21.600Z,7.10
2019-03-13T15:27:09.869Z,7.00
2019-03-13T15:29:58.138Z,6.90
2019-03-13T15:32:46.427Z,6.90
2019-03-13T15:35:34.528Z,6.90
2019-03-13T15:38:22.786Z,6.90
2019-03-13T15:41:10.765Z,6.90
2019-03-13T15:43:59.018Z,6.90
2019-03-13T15:46:47.258Z,7.00
2019-03-13T15:49:16.290Z,7.00
2019-03-13T15:52:04.371Z,7.00
2019-03-13T15:54:52.618Z,7.00
2019-03-13T15:57:40.922Z,7.00
2019-03-13T16:00:29.284Z,7.00
2019-03-13T16:07:13.771Z,6.90
2019-03-13T16:31:38.867Z,6.60
2019-03-13T16:34:27.368Z,6.60
2019-03-13T16:37:15.455Z,6.60
2019-03-13T16:40:03.865Z,6.50
2019-03-13T16:42:51.954Z,6.50
2019-03-13T16:45:40.473Z,6.50
2019-03-13T16:48:28.720Z,6.40
2019-03-13T16:51:16.978Z,6.40
2019-03-13T16:54:05.307Z,6.40
2019-03-13T16:56:53.568Z,6.30
2019-03-13T16:59:42.350Z,6.30
2019-03-13T17:02:30.596Z,6.20
2019-03-13T17:05:18.950Z,6.20
2019-03-13T17:08:07.305Z,6.20
2019-03-13T17:10:55.407Z,6.20
2019-03-13T17:16:23.265Z,6.10
2019-03-13T17:21:46.879Z,6.00
2019-03-13T17:24:15.685Z,6.10
2019-03-13T17:27:04.118Z,6.10
2019-03-13T17:30:09.787Z,6.00
2019-03-13T17:32:58.170Z,6.10
2019-03-13T17:35:47.262Z,6.10
2019-03-13T17:38:35.817Z,6.10
2019-03-13T17:41:23.830Z,6.10
2019-03-13T17:44:12.120Z,6.10
2019-03-13T17:47:00.800Z,6.10
2019-03-13T17:49:49.087Z,6.10
2019-03-13T17:52:37.395Z,6.10
2019-03-13T17:55:25.716Z,6.10
2019-03-13T17:58:14.186Z,6.10
2019-03-13T18:00:55.507Z,6.10
2019-03-13T18:03:24.335Z,6.10
2019-03-13T18:05:53.538Z,6.10
2019-03-13T18:08:41.883Z,6.10
2019-03-13T18:11:30.738Z,6.10
2019-03-13T18:14:19.434Z,6.10
2019-03-13T18:17:07.947Z,6.10
2019-03-13T18:19:55.998Z,6.10
2019-03-13T18:22:44.478Z,6.10
2019-03-13T18:25:33.142Z,6.10
2019-03-13T18:28:22.214Z,6.20
2019-03-13T18:31:10.590Z,6.20
2019-03-13T18:33:58.755Z,6.20
2019-03-13T18:37:05.989Z,6.20
2019-03-13T18:39:54.336Z,6.20
2019-03-13T18:42:42.351Z,6.20
2019-03-13T18:45:30.444Z,6.30
2019-03-13T18:48:18.454Z,6.30
2019-03-13T18:51:06.698Z,6.30
2019-03-13T18:53:55.189Z,6.30
2019-03-13T18:56:38.426Z,6.30
2019-03-13T18:59:18.683Z,6.30
2019-03-13T19:01:59.800Z,6.30
2019-03-13T19:04:41.177Z,6.30
2019-03-13T19:07:22.288Z,6.30
2019-03-13T19:10:03.454Z,6.30
2019-03-13T19:12:44.222Z,6.30
2019-03-13T19:15:25.871Z,6.30
2019-03-13T19:18:06.715Z,6.30
2019-03-13T19:20:47.423Z,6.30
2019-03-13T19:26:13.026Z,6.30
2019-03-13T19:28:54.516Z,6.30
2019-03-13T19:31:36.170Z,6.30
2019-03-13T19:34:17.057Z,6.30
2019-03-13T19:36:59.153Z,6.40
2019-03-13T19:39:40.785Z,6.40
2019-03-13T19:42:21.616Z,6.30
2019-03-13T19:45:02.706Z,6.40
2019-03-13T19:47:43.873Z,6.40
2019-03-13T19:50:13.199Z,6.40
2019-03-13T19:53:01.308Z,6.40
2019-03-13T19:55:49.603Z,6.40
2019-03-13T19:58:37.883Z,6.40
2019-03-13T20:01:25.990Z,6.40
2019-03-13T20:04:14.515Z,6.40
2019-03-13T20:07:02.552Z,6.40
2019-03-13T20:09:50.705Z,6.50
2019-03-13T20:12:38.716Z,6.50
2019-03-13T20:15:27.213Z,6.50
2019-03-13T20:18:15.830Z,6.50
2019-03-13T20:21:04.574Z,6.50
2019-03-13T20:23:52.982Z,6.50
2019-03-13T20:26:41.062Z,6.50
2019-03-13T20:29:29.182Z,6.50
2019-03-13T20:32:17.467Z,6.50
2019-03-13T20:35:06.136Z,6.50
2019-03-13T20:37:54.420Z,6.50
2019-03-13T20:40:42.774Z,6.50
2019-03-13T20:43:30.872Z,6.50
2019-03-13T20:46:12.020Z,6.60
2019-03-13T20:48:52.717Z,6.50
2019-03-13T20:51:34.040Z,6.60
2019-03-13T20:54:15.114Z,6.60
2019-03-13T20:56:55.877Z,6.50
2019-03-13T20:59:37.094Z,6.60
2019-03-13T21:02:18.767Z,6.60
2019-03-13T21:04:58.288Z,6.50
2019-03-13T21:07:47.113Z,6.60
2019-03-13T21:10:35.233Z,6.60
2019-03-13T21:13:24.149Z,6.60
2019-03-13T21:16:12.704Z,6.60
2019-03-13T21:19:00.783Z,6.60
2019-03-13T21:21:48.823Z,6.70
2019-03-13T21:24:17.871Z,6.70
2019-03-13T21:27:06.258Z,6.70
2019-03-13T21:29:54.771Z,6.70
2019-03-13T21:32:43.063Z,6.70
2019-03-13T21:35:31.414Z,6.70
2019-03-13T21:38:19.946Z,6.70
2019-03-13T21:41:01.270Z,6.70
2019-03-13T21:43:42.875Z,6.70
2019-03-13T21:46:24.391Z,6.70
2019-03-13T21:49:08.086Z,6.70
2019-03-13T21:51:48.453Z,6.70
2019-03-13T21:54:30.169Z,6.70
2019-03-13T21:57:11.371Z,6.70
2019-03-13T21:59:52.111Z,6.70
2019-03-13T22:02:36.424Z,6.70
2019-03-13T22:05:25.124Z,6.70
2019-03-13T22:07:58.071Z,6.70
2019-03-13T22:10:38.985Z,6.70
2019-03-13T22:13:19.502Z,6.60
2019-03-13T22:16:00.355Z,6.60
2019-03-13T22:18:41.326Z,6.60
2019-03-13T22:21:25.343Z,6.60
2019-03-13T22:24:06.377Z,6.60
2019-03-13T22:26:46.913Z,6.60
2019-03-13T22:29:27.962Z,6.60
2019-03-13T22:32:08.511Z,6.60
2019-03-13T22:34:49.191Z,6.60
2019-03-13T22:37:30.470Z,6.60
2019-03-13T22:39:59.726Z,6.60
2019-03-13T22:45:43.059Z,6.60
2019-03-13T22:48:12.117Z,6.60
2019-03-13T22:51:02.353Z,6.60
2019-03-13T22:53:50.451Z,6.60
2019-03-13T22:56:38.978Z,6.50
2019-03-13T22:59:27.582Z,6.60
2019-03-13T23:02:36.251Z,6.50
2019-03-13T23:05:24.913Z,6.50
2019-03-13T23:08:12.933Z,6.50
2019-03-13T23:11:01.251Z,6.50
2019-03-13T23:13:49.336Z,6.50
2019-03-13T23:16:37.609Z,6.50
2019-03-13T23:19:25.948Z,6.50
2019-03-13T23:22:14.205Z,6.50
2019-03-13T23:25:02.775Z,6.50
2019-03-13T23:27:50.810Z,6.50
2019-03-13T23:30:31.999Z,6.50
2019-03-13T23:33:12.481Z,6.50
2019-03-13T23:35:56.541Z,6.50
2019-03-13T23:38:38.132Z,6.40
2019-03-13T23:41:19.314Z,6.40
2019-03-13T23:43:59.906Z,6.40
2019-03-13T23:46:40.515Z,6.40
2019-03-13T23:49:21.949Z,6.40
2019-03-13T23:52:03.126Z,6.50
2019-03-13T23:54:44.252Z,6.50
2019-03-13T23:57:25.264Z,6.40
